Terminal Aerodrome Forecast
Issued by NWS Mobile, AL

Current Version | Previous Version | Text Only | Print | Product List | Glossary On
Versions: 1 2 3 4 5 6 7 8 9 10 11 12 13 14
551
FTUS44 KMOB 221739
TAFPNS
TAF
KPNS 221739Z 2218/2318 03008KT P6SM FEW060 SCT120 SCT300
     FM222100 VRB05KT P6SM FEW060 SCT300
     FM231500 10008KT P6SM FEW060 SCT300=

USA.gov is the U.S. government's official web portal to all federal, state and local government web resources and services.